Corvallis Municipal Airport Corvallis US
ICAO: KCVO
IATA: CVO
Category: Medium
Scheduled Services: No

Elevation: 250 ft
TransAlt. 18000 ft.

Airport Communications:
CASCADE APP/DEP:127.5
AWOS 3:135.775
CTAF/UNICOM:123

KCVO Zoom In..

If you have problems with the map follow the link
https://www.worldairports.se/pages/airport.php?
ICAO=KCVO

Runways:

(A) RW 09 length 3545 ft width 75 ft
---- / hdg 94

(B) RW 17 length 5900 ft width 150 ft
ILS 111.90 / hdg 169

(C) RW 27 length 3545 ft width 75 ft
---- / hdg 274

(D) RW 35 length 5900 ft width 150 ft
---- / hdg 349

Location; KCVO
Day. 26 / Time. 23.56 Zulu
* Altimeter: 30.08
* Temperature: 12° c. 53.6°f.
* Wind from: 190° Speed 09 kn.
Dewpoint: 07° c.
Visibility: 10 Statute Miles.
Clouds: Few 4200 ft.
Clouds: Scattered 5000 ft.
Clouds: Broken 9000 ft.

KCVO 262356Z AUTO 19009KT 10SM FEW042 SCT050 BKN090 12/07 A3008 RMK AO2 SLP189 60000 T01170072 10128 20089 57004


Wind From 190°
Speed 09 kn.

 
 
jpsmedia worldairports.se 2020   terms of use